Crew | Aerofun Virtual



 METAR AND TAF INFORMATION
METAR FOR LEDA
ADDS - METARS form results

(0315 UTC 23 September 2019)
Data provider http://aviationweather.gov/metar/data/
 
METAR text: LEDA 230300Z AUTO 21004KT 9999 NCD 13/10 Q1017
Conditions at: LEDA (LLEIDA-ALGUAIRE , ES) observed 0300 UTC 23 September 2019
Temperature: 13.0°C (55°F)
Dewpoint: 10.0°C (50°F) [RH = 82%]
Pressure (altimeter): 30.03 inches Hg (1017.0 mb)
Winds: from the SSW (210 degrees) at 5 MPH (4 knots; 2.1 m/s)
Visibility: 6 or more miles (10+ km)
Ceiling: at least 12,000 feet AGL
Clouds: sky clear below 12,000 feet AGL
Weather: no significant weather observed at this time

METAR text: LEDA 230230Z AUTO 23004KT 9999 NCD 13/10 Q1017
Conditions at: LEDA (LLEIDA-ALGUAIRE , ES) observed 0230 UTC 23 September 2019
Temperature: 13.0°C (55°F)
Dewpoint: 10.0°C (50°F) [RH = 82%]
Pressure (altimeter): 30.03 inches Hg (1017.0 mb)
Winds: from the SW (230 degrees) at 5 MPH (4 knots; 2.1 m/s)
Visibility: 6 or more miles (10+ km)
Ceiling: at least 12,000 feet AGL
Clouds: sky clear below 12,000 feet AGL
Weather: no significant weather observed at this time

 AIRPORT MAP

 RUNWAY INFORMATION

 AIRPORT FREQUENCIES

 AIRPORT NEAR NAVIGATION AIDS